createdAt,value
2023-05-02T00:00:53.355Z,43.35
2023-05-02T00:01:53.423Z,43.37
2023-05-02T00:02:53.722Z,43.35
2023-05-02T00:03:53.544Z,43.37
2023-05-02T00:04:53.545Z,43.34
2023-05-02T00:05:53.749Z,43.32
2023-05-02T00:06:53.684Z,43.33
2023-05-02T00:07:53.639Z,43.36
2023-05-02T00:08:53.703Z,43.36
2023-05-02T00:09:53.765Z,43.35
2023-05-02T00:10:54.245Z,43.35
2023-05-02T00:11:53.867Z,43.35
2023-05-02T00:12:54.003Z,43.34
2023-05-02T00:13:53.942Z,43.35
2023-05-02T00:14:54.015Z,43.39
2023-05-02T00:15:54.236Z,43.36
2023-05-02T00:16:54.129Z,43.38
2023-05-02T00:17:54.164Z,43.38
2023-05-02T00:18:54.176Z,43.37
2023-05-02T00:19:54.221Z,43.35
2023-05-02T00:20:54.753Z,43.36
2023-05-02T00:21:54.305Z,43.35
2023-05-02T00:22:54.357Z,43.36
2023-05-02T00:23:54.407Z,43.36
2023-05-02T00:24:54.430Z,43.38
2023-05-02T00:25:54.741Z,43.36
2023-05-02T00:26:54.531Z,43.39
2023-05-02T00:27:54.630Z,43.37
2023-05-02T00:28:54.650Z,43.39
2023-05-02T00:29:54.672Z,43.41
2023-05-02T00:30:54.777Z,43.40
2023-05-02T00:31:54.774Z,43.39
2023-05-02T00:32:54.835Z,43.39
2023-05-02T00:33:54.863Z,43.39
2023-05-02T00:34:54.906Z,43.36
2023-05-02T00:35:55.267Z,43.39
2023-05-02T00:36:55.010Z,43.35
2023-05-02T00:37:55.082Z,43.35
2023-05-02T00:38:55.071Z,43.36
2023-05-02T00:39:55.121Z,43.37
2023-05-02T00:40:55.264Z,43.35
2023-05-02T00:41:55.164Z,43.36
2023-05-02T00:42:55.178Z,43.37
2023-05-02T00:43:55.200Z,43.37
2023-05-02T00:44:55.244Z,43.36
2023-05-02T00:45:55.775Z,43.38
2023-05-02T00:46:55.423Z,43.36
2023-05-02T00:47:55.401Z,43.36
2023-05-02T00:48:55.440Z,43.41
2023-05-02T00:49:55.496Z,43.39
2023-05-02T00:50:55.741Z,43.37
2023-05-02T00:51:56.257Z,43.38
2023-05-02T00:52:55.609Z,43.37
2023-05-02T00:53:55.653Z,43.38
2023-05-02T00:54:55.708Z,43.38
2023-05-02T00:55:56.246Z,43.37
2023-05-02T00:56:55.813Z,43.37
2023-05-02T00:57:55.865Z,43.39
2023-05-02T00:58:55.905Z,43.36
2023-05-02T00:59:55.963Z,43.34
2023-05-02T01:00:55.995Z,43.39
2023-05-02T01:01:56.091Z,43.36
2023-05-02T01:02:56.148Z,43.38
2023-05-02T01:03:56.255Z,43.36
2023-05-02T01:04:56.169Z,43.36
2023-05-02T01:05:56.245Z,43.36
2023-05-02T01:06:56.266Z,43.36
2023-05-02T01:07:56.335Z,43.39
2023-05-02T01:08:56.372Z,43.38
2023-05-02T01:09:56.484Z,43.39
2023-05-02T01:10:56.758Z,43.37
2023-05-02T01:11:56.502Z,43.32
2023-05-02T01:12:56.539Z,43.35
2023-05-02T01:13:56.607Z,43.36
2023-05-02T01:14:56.634Z,43.37
2023-05-02T01:15:56.801Z,43.38
2023-05-02T01:16:56.726Z,43.36
2023-05-02T01:17:56.878Z,43.38
2023-05-02T01:18:56.822Z,43.37
2023-05-02T01:19:56.936Z,43.38
2023-05-02T01:20:57.291Z,43.39
2023-05-02T01:21:56.946Z,43.37
2023-05-02T01:22:57.022Z,43.39
2023-05-02T01:23:57.055Z,43.39
2023-05-02T01:24:57.113Z,43.38
2023-05-02T01:25:57.277Z,43.38
2023-05-02T01:26:57.212Z,43.39
2023-05-02T01:27:57.249Z,43.40
2023-05-02T01:28:57.272Z,43.38
2023-05-02T01:29:57.404Z,43.37
2023-05-02T01:30:57.830Z,43.39
2023-05-02T01:31:57.507Z,43.40
2023-05-02T01:32:57.469Z,43.37
2023-05-02T01:33:57.494Z,43.43
2023-05-02T01:34:57.557Z,43.41
2023-05-02T01:35:57.599Z,43.38
2023-05-02T01:36:57.783Z,43.40
2023-05-02T01:37:57.707Z,43.39
2023-05-02T01:38:57.733Z,43.38
2023-05-02T01:39:57.896Z,43.39
2023-05-02T01:40:57.841Z,43.38
2023-05-02T01:41:57.905Z,43.39
2023-05-02T01:42:57.932Z,43.38
2023-05-02T01:43:57.978Z,43.40
2023-05-02T01:44:58.068Z,43.37
2023-05-02T01:45:58.079Z,43.37
2023-05-02T01:46:58.183Z,43.38
2023-05-02T01:47:58.240Z,43.40
2023-05-02T01:48:58.230Z,43.40
2023-05-02T01:49:58.499Z,43.39
2023-05-02T01:50:58.375Z,43.42
2023-05-02T01:51:58.356Z,43.38
2023-05-02T01:52:58.410Z,43.40
2023-05-02T01:53:58.458Z,43.39
2023-05-02T01:54:58.504Z,43.36
2023-05-02T01:55:58.789Z,43.35
2023-05-02T01:56:58.582Z,43.37
2023-05-02T01:57:58.624Z,43.35
2023-05-02T01:58:58.777Z,43.35
2023-05-02T01:59:58.897Z,43.35
2023-05-02T02:00:58.877Z,43.37
2023-05-02T02:01:58.865Z,43.36
2023-05-02T02:02:58.906Z,43.37
2023-05-02T02:03:58.964Z,43.35
2023-05-02T02:04:58.985Z,43.39
2023-05-02T02:05:59.379Z,43.35
2023-05-02T02:06:59.101Z,43.35
2023-05-02T02:07:59.116Z,43.35
2023-05-02T02:08:59.167Z,43.36
2023-05-02T02:09:59.465Z,43.35
2023-05-02T02:10:59.268Z,43.36
2023-05-02T02:11:59.291Z,43.35
2023-05-02T02:12:59.389Z,43.36
2023-05-02T02:13:59.424Z,43.35
2023-05-02T02:14:59.431Z,43.35
2023-05-02T02:15:59.494Z,43.36
2023-05-02T02:16:59.931Z,43.35
2023-05-02T02:17:59.631Z,43.34
2023-05-02T02:18:59.644Z,43.37
2023-05-02T02:20:00.048Z,43.35
2023-05-02T02:20:59.785Z,43.32
2023-05-02T02:21:59.775Z,43.36
2023-05-02T02:22:59.860Z,43.36
2023-05-02T02:23:59.898Z,43.35
2023-05-02T02:24:59.963Z,43.35
2023-05-02T02:25:59.990Z,43.34
2023-05-02T02:27:00.052Z,43.34
2023-05-02T02:28:00.138Z,43.35
2023-05-02T02:29:00.139Z,43.35
2023-05-02T02:30:00.485Z,43.34
2023-05-02T02:31:00.256Z,43.30
2023-05-02T02:32:00.298Z,43.36
2023-05-02T02:33:00.398Z,43.32
2023-05-02T02:34:00.398Z,43.33
2023-05-02T02:35:00.413Z,43.35
2023-05-02T02:36:00.461Z,43.35
2023-05-02T02:37:00.764Z,43.33
2023-05-02T02:38:00.557Z,43.34
2023-05-02T02:39:00.582Z,43.32
2023-05-02T02:40:01.073Z,43.33
2023-05-02T02:41:00.655Z,43.36
2023-05-02T02:42:00.737Z,43.35
2023-05-02T02:43:00.728Z,43.35
2023-05-02T02:44:00.753Z,43.36
2023-05-02T02:45:00.826Z,43.34
2023-05-02T02:46:00.922Z,43.36
2023-05-02T02:47:00.927Z,43.36
2023-05-02T02:48:00.985Z,43.33
2023-05-02T02:49:01.029Z,43.32
2023-05-02T02:50:01.316Z,43.35
2023-05-02T02:51:01.111Z,43.33
2023-05-02T02:52:01.144Z,43.36
2023-05-02T02:53:01.199Z,43.36
2023-05-02T02:54:01.246Z,43.34
2023-05-02T02:55:01.274Z,43.36
2023-05-02T02:56:01.328Z,43.33
2023-05-02T02:57:01.373Z,43.34
2023-05-02T02:58:01.399Z,43.31
2023-05-02T02:59:01.448Z,43.38
2023-05-02T03:00:01.710Z,43.34
2023-05-02T03:01:01.505Z,43.34
2023-05-02T03:02:01.697Z,43.35
2023-05-02T03:03:01.829Z,43.34
2023-05-02T03:04:01.707Z,43.33
2023-05-02T03:05:01.674Z,43.33
2023-05-02T03:06:01.735Z,43.32
2023-05-02T03:07:01.788Z,43.34
2023-05-02T03:08:01.851Z,43.33
2023-05-02T03:09:01.895Z,43.33
2023-05-02T03:10:02.160Z,43.33
2023-05-02T03:11:01.971Z,43.33
2023-05-02T03:12:02.011Z,43.34
2023-05-02T03:13:02.045Z,43.37
2023-05-02T03:14:02.081Z,43.33
2023-05-02T03:15:02.170Z,43.35
2023-05-02T03:16:02.288Z,43.34
2023-05-02T03:17:02.234Z,43.32
2023-05-02T03:18:02.295Z,43.33
2023-05-02T03:19:02.308Z,43.34
2023-05-02T03:20:02.501Z,43.34
2023-05-02T03:21:02.469Z,43.35
2023-05-02T03:22:02.782Z,43.38
2023-05-02T03:23:02.516Z,43.34
2023-05-02T03:24:02.526Z,43.38
2023-05-02T03:25:02.592Z,43.35
2023-05-02T03:26:02.624Z,43.39
2023-05-02T03:27:02.674Z,43.37
2023-05-02T03:28:02.724Z,43.36
2023-05-02T03:29:02.776Z,43.36
2023-05-02T03:30:02.975Z,43.37
2023-05-02T03:31:02.866Z,43.36
2023-05-02T03:32:03.068Z,43.33
2023-05-02T03:33:02.991Z,43.34
2023-05-02T03:34:03.001Z,43.34
2023-05-02T03:35:03.038Z,43.36
2023-05-02T03:36:03.128Z,43.32
2023-05-02T03:37:03.171Z,43.30
2023-05-02T03:38:03.207Z,43.32
2023-05-02T03:39:03.250Z,43.32
2023-05-02T03:40:03.403Z,43.33
2023-05-02T03:41:03.362Z,43.32
2023-05-02T03:42:03.791Z,43.33
2023-05-02T03:43:03.449Z,43.35
2023-05-02T03:44:03.485Z,43.31
2023-05-02T03:45:03.540Z,43.33
2023-05-02T03:46:03.613Z,43.34
2023-05-02T03:47:03.722Z,43.34
2023-05-02T03:48:03.711Z,43.32
2023-05-02T03:49:03.700Z,43.33
2023-05-02T03:50:03.781Z,43.34
2023-05-02T03:51:03.812Z,43.35
2023-05-02T03:52:03.881Z,43.34
2023-05-02T03:53:03.928Z,43.34
2023-05-02T03:54:03.921Z,43.32
2023-05-02T03:55:03.992Z,43.34
2023-05-02T03:56:04.011Z,43.31
2023-05-02T03:57:04.053Z,43.31
2023-05-02T03:58:04.125Z,43.28
2023-05-02T03:59:04.175Z,43.33
2023-05-02T04:00:04.235Z,43.33
2023-05-02T04:01:04.258Z,43.33
2023-05-02T04:02:04.303Z,43.32
2023-05-02T04:03:04.352Z,43.33
2023-05-02T04:04:04.424Z,43.31
2023-05-02T04:05:04.425Z,43.29
2023-05-02T04:06:04.467Z,43.28
2023-05-02T04:07:04.540Z,43.30
2023-05-02T04:08:04.547Z,43.29
2023-05-02T04:09:04.624Z,43.30
2023-05-02T04:10:04.702Z,43.29
2023-05-02T04:11:04.716Z,43.28
2023-05-02T04:12:04.749Z,43.28
2023-05-02T04:13:04.776Z,43.31
2023-05-02T04:14:04.832Z,43.29
2023-05-02T04:15:04.875Z,43.31
2023-05-02T04:16:04.904Z,43.29
2023-05-02T04:17:05.397Z,43.30
2023-05-02T04:18:05.024Z,43.30
2023-05-02T04:19:05.046Z,43.30
2023-05-02T04:20:05.812Z,43.31
2023-05-02T04:21:05.135Z,43.31
2023-05-02T04:22:05.191Z,43.30
2023-05-02T04:23:05.258Z,43.32
2023-05-02T04:24:05.285Z,43.30
2023-05-02T04:25:05.306Z,43.31
2023-05-02T04:26:05.357Z,43.31
2023-05-02T04:27:05.828Z,43.32
2023-05-02T04:28:05.442Z,43.28
2023-05-02T04:29:05.761Z,43.30
2023-05-02T04:30:05.508Z,43.30
2023-05-02T04:31:05.617Z,43.30
2023-05-02T04:32:05.633Z,43.29
2023-05-02T04:33:05.702Z,43.28
2023-05-02T04:34:05.700Z,43.29
2023-05-02T04:35:05.738Z,43.28
2023-05-02T04:36:05.759Z,43.31
2023-05-02T04:37:05.846Z,43.31
2023-05-02T04:38:05.849Z,43.33
2023-05-02T04:39:05.899Z,43.29
2023-05-02T04:40:05.954Z,43.32
2023-05-02T04:41:09.141Z,43.30
2023-05-02T04:42:05.996Z,43.30
2023-05-02T04:43:06.116Z,43.29
2023-05-02T04:44:05.958Z,43.32
2023-05-02T04:45:06.010Z,43.31
2023-05-02T04:46:05.994Z,43.32
2023-05-02T04:47:05.970Z,43.31
2023-05-02T04:48:06.034Z,43.29
2023-05-02T04:49:05.965Z,43.28
2023-05-02T04:50:05.924Z,43.29
2023-05-02T04:51:05.959Z,43.31
2023-05-02T04:52:05.926Z,43.30
2023-05-02T04:53:05.946Z,43.33
2023-05-02T04:54:05.916Z,43.32
2023-05-02T04:55:05.912Z,43.30
2023-05-02T04:56:05.934Z,43.31
2023-05-02T04:57:05.920Z,43.27
2023-05-02T04:58:05.919Z,43.30
2023-05-02T04:59:05.899Z,43.32
2023-05-02T05:00:05.890Z,43.29
2023-05-02T05:01:05.874Z,43.29
2023-05-02T05:02:05.962Z,43.29
2023-05-02T05:03:05.963Z,43.42
2023-05-02T05:04:05.931Z,45.60
2023-05-02T05:05:05.910Z,46.13
2023-05-02T05:06:05.904Z,46.79
2023-05-02T05:07:05.827Z,47.38
2023-05-02T05:08:05.865Z,46.36
2023-05-02T05:09:05.829Z,45.67
2023-05-02T05:10:05.824Z,45.60
2023-05-02T05:11:05.797Z,45.62
2023-05-02T05:12:05.835Z,45.77
2023-05-02T05:13:05.806Z,45.80
2023-05-02T05:14:05.800Z,45.81
2023-05-02T05:15:05.792Z,45.82
2023-05-02T05:16:05.823Z,45.82
2023-05-02T05:17:05.877Z,45.82
2023-05-02T05:18:05.881Z,45.79
2023-05-02T05:19:05.750Z,45.75
2023-05-02T05:20:06.347Z,45.76
2023-05-02T05:21:05.764Z,45.77
2023-05-02T05:22:05.719Z,45.71
2023-05-02T05:23:05.733Z,45.71
2023-05-02T05:24:05.774Z,45.70
2023-05-02T05:25:05.793Z,45.66
2023-05-02T05:26:05.790Z,45.67
2023-05-02T05:27:05.839Z,45.65
2023-05-02T05:28:05.836Z,45.64
2023-05-02T05:29:05.872Z,45.65
2023-05-02T05:30:05.934Z,45.62
2023-05-02T05:31:05.985Z,45.59
2023-05-02T05:32:06.118Z,45.57
2023-05-02T05:33:06.009Z,45.56
2023-05-02T05:34:06.030Z,45.62
2023-05-02T05:35:06.011Z,45.61
2023-05-02T05:36:05.991Z,45.64
2023-05-02T05:37:06.052Z,45.64
2023-05-02T05:38:06.015Z,45.61
2023-05-02T05:39:06.048Z,45.58
2023-05-02T05:40:06.078Z,45.58
2023-05-02T05:41:06.066Z,45.60
2023-05-02T05:42:06.123Z,45.62
2023-05-02T05:43:06.155Z,45.64
2023-05-02T05:44:06.165Z,45.62
2023-05-02T05:45:06.189Z,45.64
2023-05-02T05:46:06.259Z,46.20
2023-05-02T05:47:06.370Z,46.12
2023-05-02T05:48:06.313Z,46.64
2023-05-02T05:49:06.295Z,46.74
2023-05-02T05:50:06.320Z,47.09
2023-05-02T05:51:06.358Z,47.21
2023-05-02T05:52:06.382Z,47.00
2023-05-02T05:53:06.449Z,47.04
2023-05-02T05:54:06.455Z,47.71
2023-05-02T05:55:06.465Z,47.82
2023-05-02T05:56:06.489Z,48.51
2023-05-02T05:57:06.480Z,47.76
2023-05-02T05:58:06.508Z,48.07
2023-05-02T05:59:06.553Z,48.37
2023-05-02T06:00:06.566Z,47.87
2023-05-02T06:01:06.559Z,48.14
2023-05-02T06:02:06.608Z,48.90
2023-05-02T06:03:08.145Z,48.84
2023-05-02T06:04:06.715Z,49.08
2023-05-02T06:05:06.664Z,48.99
2023-05-02T06:06:06.646Z,48.79
2023-05-02T06:07:06.557Z,48.73
2023-05-02T06:08:06.556Z,49.00
2023-05-02T06:09:06.530Z,49.74
2023-05-02T06:10:06.518Z,50.07
2023-05-02T06:11:06.524Z,49.85
2023-05-02T06:12:06.531Z,49.93
2023-05-02T06:13:06.518Z,50.31
2023-05-02T06:14:06.486Z,50.24
2023-05-02T06:15:06.480Z,50.84
2023-05-02T06:16:06.527Z,50.74
2023-05-02T06:17:06.482Z,50.60
2023-05-02T06:18:06.498Z,50.51
2023-05-02T06:19:06.437Z,50.40
2023-05-02T06:20:06.480Z,50.72
2023-05-02T06:21:06.493Z,50.79
2023-05-02T06:22:06.429Z,50.95
2023-05-02T06:23:06.602Z,50.88
2023-05-02T06:24:06.962Z,51.04
2023-05-02T06:25:06.406Z,50.89
2023-05-02T06:26:06.424Z,50.85
2023-05-02T06:27:06.403Z,50.91
2023-05-02T06:28:06.421Z,51.07
2023-05-02T06:29:06.382Z,50.98
2023-05-02T06:30:06.388Z,51.18
2023-05-02T06:31:06.500Z,51.37
2023-05-02T06:32:06.580Z,51.58
2023-05-02T06:33:06.491Z,51.47
2023-05-02T06:34:06.374Z,51.47
2023-05-02T06:35:06.333Z,51.42
2023-05-02T06:36:06.359Z,51.40
2023-05-02T06:37:06.339Z,51.75
2023-05-02T06:38:06.370Z,51.75
2023-05-02T06:39:06.351Z,51.82
2023-05-02T06:40:06.331Z,51.86
2023-05-02T06:41:06.322Z,51.86
2023-05-02T06:42:06.340Z,52.00
2023-05-02T06:43:06.295Z,51.98
2023-05-02T06:44:06.289Z,52.09
2023-05-02T06:45:06.308Z,52.14
2023-05-02T06:46:06.298Z,52.08
2023-05-02T06:47:06.332Z,52.29
2023-05-02T06:48:06.306Z,52.24
2023-05-02T06:49:06.274Z,52.26
2023-05-02T06:50:06.239Z,52.15
2023-05-02T06:51:06.257Z,52.25
2023-05-02T06:52:06.272Z,52.63
2023-05-02T06:53:06.220Z,52.79
2023-05-02T06:54:06.201Z,52.66
2023-05-02T06:55:06.232Z,52.55
2023-05-02T06:56:06.190Z,52.32
2023-05-02T06:57:06.232Z,52.03
2023-05-02T06:58:06.187Z,51.91
2023-05-02T06:59:06.187Z,51.73
2023-05-02T07:00:06.230Z,51.67
2023-05-02T07:01:06.216Z,51.60
2023-05-02T07:02:06.139Z,51.55
2023-05-02T07:03:06.214Z,51.53
2023-05-02T07:04:06.198Z,51.58
2023-05-02T07:05:06.183Z,51.57
2023-05-02T07:06:06.143Z,51.58
2023-05-02T07:07:06.116Z,51.63
2023-05-02T07:08:06.105Z,51.67
2023-05-02T07:09:06.100Z,51.69
2023-05-02T07:10:06.132Z,51.61
2023-05-02T07:11:06.168Z,51.64
2023-05-02T07:12:07.038Z,51.62
2023-05-02T07:13:06.825Z,51.56
2023-05-02T07:14:06.246Z,51.59
2023-05-02T07:15:06.258Z,51.57
2023-05-02T07:16:06.347Z,51.51
2023-05-02T07:17:06.424Z,51.52
2023-05-02T07:18:06.436Z,51.55
2023-05-02T07:19:06.381Z,51.59
2023-05-02T07:20:06.431Z,51.57
2023-05-02T07:21:06.452Z,51.53
2023-05-02T07:22:06.511Z,51.71
2023-05-02T07:23:06.557Z,51.64
2023-05-02T07:24:06.595Z,51.70
2023-05-02T07:25:06.615Z,51.64
2023-05-02T07:26:06.658Z,51.64
2023-05-02T07:27:06.670Z,51.60
2023-05-02T07:28:06.696Z,51.55
2023-05-02T07:29:06.716Z,51.54
2023-05-02T07:30:06.783Z,51.61
2023-05-02T07:31:06.812Z,51.57
2023-05-02T07:32:06.864Z,51.60
2023-05-02T07:33:06.849Z,51.61
2023-05-02T07:34:06.886Z,51.54
2023-05-02T07:35:06.911Z,51.64
2023-05-02T07:36:06.904Z,51.51
2023-05-02T07:37:06.950Z,51.46
2023-05-02T07:38:06.965Z,51.49
2023-05-02T07:39:06.955Z,51.47
2023-05-02T07:40:07.013Z,51.50
2023-05-02T07:41:07.044Z,51.43
2023-05-02T07:42:07.047Z,51.41
2023-05-02T07:43:07.940Z,51.40
2023-05-02T07:44:07.057Z,51.43
2023-05-02T07:45:07.111Z,51.44
2023-05-02T07:46:07.211Z,51.44
2023-05-02T07:47:07.117Z,51.33
2023-05-02T07:48:07.219Z,51.25
2023-05-02T07:49:07.204Z,50.78
2023-05-02T07:50:07.620Z,50.58
2023-05-02T07:51:07.234Z,49.64
2023-05-02T07:52:07.323Z,49.97
2023-05-02T07:53:07.331Z,50.18
2023-05-02T07:54:07.395Z,49.69
2023-05-02T07:55:07.467Z,48.22
2023-05-02T07:56:07.461Z,47.25
2023-05-02T07:57:07.516Z,47.78
2023-05-02T07:58:07.546Z,48.45
2023-05-02T07:59:07.541Z,48.83
2023-05-02T08:00:07.598Z,49.27
2023-05-02T08:01:07.633Z,49.46
2023-05-02T08:02:07.696Z,49.62
2023-05-02T08:03:07.996Z,49.54
2023-05-02T08:04:08.030Z,49.67
2023-05-02T08:05:07.975Z,49.63
2023-05-02T08:06:07.817Z,49.61
2023-05-02T08:07:07.839Z,49.64
2023-05-02T08:08:07.894Z,49.56
2023-05-02T08:09:07.918Z,49.67
2023-05-02T08:10:07.923Z,49.73
2023-05-02T08:11:07.940Z,49.59
2023-05-02T08:12:07.985Z,49.59
2023-05-02T08:13:08.399Z,49.62
2023-05-02T08:14:08.002Z,49.63
2023-05-02T08:15:08.037Z,49.59
2023-05-02T08:16:08.102Z,49.48
2023-05-02T08:17:08.072Z,49.47
2023-05-02T08:18:08.147Z,49.40
2023-05-02T08:19:08.160Z,49.43
2023-05-02T08:20:08.206Z,49.45
2023-05-02T08:21:08.249Z,49.47
2023-05-02T08:22:08.314Z,49.44
2023-05-02T08:23:08.352Z,49.46
2023-05-02T08:24:08.396Z,49.47
2023-05-02T08:25:08.455Z,49.50
2023-05-02T08:26:08.530Z,49.61
2023-05-02T08:27:08.564Z,49.52
2023-05-02T08:28:08.617Z,49.55
2023-05-02T08:29:08.629Z,49.53
2023-05-02T08:30:09.123Z,49.61
2023-05-02T08:31:08.779Z,49.64
2023-05-02T08:32:08.803Z,49.69
2023-05-02T08:33:08.954Z,49.71
2023-05-02T08:34:08.834Z,49.73
2023-05-02T08:35:08.861Z,49.71
2023-05-02T08:36:08.917Z,49.73
2023-05-02T08:37:08.909Z,49.66
2023-05-02T08:38:08.971Z,49.70
2023-05-02T08:39:08.965Z,49.75
2023-05-02T08:40:08.976Z,50.03
2023-05-02T08:41:09.018Z,49.99
2023-05-02T08:42:09.033Z,49.12
2023-05-02T08:43:09.409Z,48.73
2023-05-02T08:44:09.135Z,48.77
2023-05-02T08:45:09.188Z,48.65
2023-05-02T08:46:09.232Z,48.53
2023-05-02T08:47:09.339Z,48.16
2023-05-02T08:48:09.425Z,48.67
2023-05-02T08:49:09.395Z,48.10
2023-05-02T08:50:09.477Z,47.29
2023-05-02T08:51:09.438Z,47.97
2023-05-02T08:52:09.483Z,47.89
2023-05-02T08:53:09.486Z,48.11
2023-05-02T08:54:09.554Z,47.95
2023-05-02T08:55:09.552Z,48.07
2023-05-02T08:56:09.543Z,48.06
2023-05-02T08:57:09.562Z,48.09
2023-05-02T08:58:09.564Z,48.29
2023-05-02T08:59:09.613Z,48.46
2023-05-02T09:00:09.614Z,48.76
2023-05-02T09:01:09.652Z,48.84
2023-05-02T09:02:09.622Z,49.20
2023-05-02T09:03:09.648Z,49.79
2023-05-02T09:04:09.728Z,49.88
2023-05-02T09:05:09.712Z,50.01
2023-05-02T09:06:09.846Z,49.95
2023-05-02T09:07:10.909Z,49.99
2023-05-02T09:08:09.869Z,50.03
2023-05-02T09:09:09.911Z,50.19
2023-05-02T09:10:09.966Z,50.15
2023-05-02T09:11:09.947Z,50.20
2023-05-02T09:12:10.260Z,50.29
2023-05-02T09:13:10.039Z,50.42
2023-05-02T09:14:10.017Z,50.91
2023-05-02T09:15:10.036Z,50.64
2023-05-02T09:16:10.112Z,50.55
2023-05-02T09:17:10.202Z,50.53
2023-05-02T09:18:10.085Z,50.75
2023-05-02T09:19:10.111Z,50.73
2023-05-02T09:20:10.087Z,51.32
2023-05-02T09:21:10.130Z,51.03
2023-05-02T09:22:10.141Z,50.95
2023-05-02T09:23:10.155Z,51.05
2023-05-02T09:24:10.150Z,51.08
2023-05-02T09:25:10.182Z,51.08
2023-05-02T09:26:10.206Z,51.00
2023-05-02T09:27:10.216Z,51.09
2023-05-02T09:28:10.245Z,51.12
2023-05-02T09:29:10.257Z,51.20
2023-05-02T09:30:10.265Z,51.36
2023-05-02T09:31:10.290Z,51.40
2023-05-02T09:32:10.402Z,51.32
2023-05-02T09:33:10.438Z,51.36
2023-05-02T09:34:10.343Z,51.36
2023-05-02T09:35:10.358Z,51.34
2023-05-02T09:36:10.425Z,51.46
2023-05-02T09:37:10.442Z,51.52
2023-05-02T09:38:11.092Z,51.64
2023-05-02T09:39:10.492Z,51.73
2023-05-02T09:40:10.502Z,51.74
2023-05-02T09:41:10.540Z,52.03
2023-05-02T09:42:10.575Z,52.03
2023-05-02T09:43:10.636Z,52.21
2023-05-02T09:44:10.683Z,52.12
2023-05-02T09:45:10.748Z,52.11
2023-05-02T09:46:10.795Z,52.51
2023-05-02T09:47:10.841Z,52.23
2023-05-02T09:48:10.968Z,52.06
2023-05-02T09:49:10.893Z,51.18
2023-05-02T09:50:10.910Z,51.29
2023-05-02T09:51:10.928Z,50.39
2023-05-02T09:52:10.994Z,49.91
2023-05-02T09:53:11.430Z,50.21
2023-05-02T09:54:10.983Z,49.87
2023-05-02T09:55:11.011Z,49.34
2023-05-02T09:56:11.060Z,48.53
2023-05-02T09:57:11.444Z,49.36
2023-05-02T09:58:11.396Z,49.62
2023-05-02T09:59:11.077Z,49.88
2023-05-02T10:00:11.236Z,50.09
2023-05-02T10:01:11.187Z,50.24
2023-05-02T10:02:11.305Z,50.46
2023-05-02T10:03:11.511Z,50.74
2023-05-02T10:04:11.223Z,50.74
2023-05-02T10:05:11.197Z,50.82
2023-05-02T10:06:11.281Z,50.86
2023-05-02T10:07:11.240Z,50.97
2023-05-02T10:08:11.404Z,51.10
2023-05-02T10:09:11.272Z,51.28
2023-05-02T10:10:11.285Z,51.34
2023-05-02T10:11:11.333Z,51.32
2023-05-02T10:12:11.411Z,51.39
2023-05-02T10:13:11.438Z,51.60
2023-05-02T10:14:11.457Z,51.68
2023-05-02T10:15:11.507Z,51.74
2023-05-02T10:16:11.608Z,51.79
2023-05-02T10:17:11.618Z,52.03
2023-05-02T10:18:11.686Z,52.00
2023-05-02T10:19:11.725Z,52.04
2023-05-02T10:20:11.746Z,52.14
2023-05-02T10:21:11.829Z,52.05
2023-05-02T10:22:11.825Z,52.36
2023-05-02T10:23:11.856Z,52.21
2023-05-02T10:24:11.960Z,52.14
2023-05-02T10:25:11.979Z,52.20
2023-05-02T10:26:12.042Z,52.29
2023-05-02T10:27:12.084Z,52.32
2023-05-02T10:28:12.140Z,52.38
2023-05-02T10:29:12.187Z,52.38
2023-05-02T10:30:12.227Z,52.34
2023-05-02T10:31:12.279Z,52.43
2023-05-02T10:32:12.300Z,52.45
2023-05-02T10:33:12.333Z,52.43
2023-05-02T10:34:12.355Z,52.49
2023-05-02T10:35:12.406Z,52.52
2023-05-02T10:36:12.461Z,52.74
2023-05-02T10:37:12.494Z,52.71
2023-05-02T10:38:12.486Z,52.87
2023-05-02T10:39:12.503Z,53.11
2023-05-02T10:40:12.636Z,52.66
2023-05-02T10:41:12.614Z,52.86
2023-05-02T10:42:12.667Z,51.94
2023-05-02T10:43:12.737Z,51.93
2023-05-02T10:44:12.761Z,50.56
2023-05-02T10:45:12.784Z,50.82
2023-05-02T10:46:12.914Z,51.28
2023-05-02T10:47:12.894Z,47.81
2023-05-02T10:48:13.020Z,48.24
2023-05-02T10:49:12.916Z,46.26
2023-05-02T10:50:12.935Z,46.91
2023-05-02T10:51:12.966Z,47.32
2023-05-02T10:52:12.976Z,47.51
2023-05-02T10:53:13.020Z,47.76
2023-05-02T10:54:12.987Z,48.43
2023-05-02T10:55:14.027Z,48.39
2023-05-02T10:56:13.056Z,48.88
2023-05-02T10:57:12.990Z,49.52
2023-05-02T10:58:13.470Z,49.94
2023-05-02T10:59:13.008Z,49.82
2023-05-02T11:00:12.961Z,49.49
2023-05-02T11:01:13.004Z,49.58
2023-05-02T11:02:13.022Z,49.20
2023-05-02T11:03:13.469Z,49.07
2023-05-02T11:04:12.951Z,49.39
2023-05-02T11:05:12.956Z,49.26
2023-05-02T11:06:12.949Z,49.27
2023-05-02T11:07:12.902Z,49.25
2023-05-02T11:08:12.958Z,49.30
2023-05-02T11:09:12.983Z,49.21
2023-05-02T11:10:12.993Z,49.02
2023-05-02T11:11:13.043Z,49.22
2023-05-02T11:12:13.120Z,49.07
2023-05-02T11:13:13.144Z,49.08
2023-05-02T11:14:14.351Z,49.05
2023-05-02T11:15:13.186Z,49.07
2023-05-02T11:16:13.232Z,49.09
2023-05-02T11:17:13.214Z,49.13
2023-05-02T11:18:13.591Z,49.14
2023-05-02T11:19:13.258Z,49.03
2023-05-02T11:20:13.330Z,48.97
2023-05-02T11:21:13.358Z,49.02
2023-05-02T11:22:13.932Z,49.19
2023-05-02T11:23:13.434Z,49.44
2023-05-02T11:24:13.390Z,49.64
2023-05-02T11:25:13.381Z,49.66
2023-05-02T11:26:13.414Z,49.54
2023-05-02T11:27:13.419Z,49.50
2023-05-02T11:28:13.471Z,49.57
2023-05-02T11:29:13.463Z,49.81
2023-05-02T11:30:13.551Z,50.11
2023-05-02T11:31:13.485Z,50.19
2023-05-02T11:32:13.572Z,50.27
2023-05-02T11:33:13.599Z,50.23
2023-05-02T11:34:13.587Z,50.21
2023-05-02T11:35:13.557Z,50.29
2023-05-02T11:36:13.589Z,50.26
2023-05-02T11:37:13.632Z,48.13
2023-05-02T11:38:13.954Z,45.73
2023-05-02T11:39:13.819Z,45.28
2023-05-02T11:40:13.827Z,43.36
2023-05-02T11:41:13.897Z,42.49
2023-05-02T11:42:13.808Z,42.25
2023-05-02T11:43:13.861Z,42.16
2023-05-02T11:44:13.858Z,42.19
2023-05-02T11:45:13.875Z,41.94
2023-05-02T11:46:13.975Z,41.93
2023-05-02T11:47:13.999Z,41.48
2023-05-02T11:48:14.036Z,41.75
2023-05-02T11:49:15.025Z,42.87
2023-05-02T11:50:14.118Z,42.57
2023-05-02T11:51:14.209Z,42.50
2023-05-02T11:52:14.213Z,42.51
2023-05-02T11:53:14.254Z,43.12
2023-05-02T11:54:14.302Z,43.14
2023-05-02T11:55:14.372Z,43.29
2023-05-02T11:56:14.430Z,43.92
2023-05-02T11:57:14.472Z,42.46
2023-05-02T11:58:14.496Z,42.43
2023-05-02T11:59:14.572Z,42.07
2023-05-02T12:00:14.621Z,42.45
2023-05-02T12:01:14.943Z,43.25
2023-05-02T12:02:14.733Z,43.00
2023-05-02T12:03:14.889Z,43.77
2023-05-02T12:04:14.788Z,42.98
2023-05-02T12:05:14.890Z,43.25
2023-05-02T12:06:15.271Z,43.42
2023-05-02T12:07:14.858Z,43.36
2023-05-02T12:08:14.834Z,43.23
2023-05-02T12:09:14.902Z,42.97
2023-05-02T12:10:14.938Z,43.16
2023-05-02T12:11:14.928Z,43.13
2023-05-02T12:12:15.016Z,43.03
2023-05-02T12:13:15.037Z,43.19
2023-05-02T12:14:15.089Z,42.92
2023-05-02T12:15:15.144Z,43.24
2023-05-02T12:16:15.370Z,43.03
2023-05-02T12:17:15.250Z,43.36
2023-05-02T12:18:15.315Z,43.60
2023-05-02T12:19:15.413Z,43.59
2023-05-02T12:20:15.418Z,43.58
2023-05-02T12:21:15.479Z,43.92
2023-05-02T12:22:15.530Z,44.02
2023-05-02T12:23:16.016Z,43.57
2023-05-02T12:24:15.606Z,44.30
2023-05-02T12:25:15.638Z,44.00
2023-05-02T12:26:15.708Z,44.80
2023-05-02T12:27:15.732Z,45.44
2023-05-02T12:28:15.803Z,45.09
2023-05-02T12:29:15.807Z,45.09
2023-05-02T12:30:15.822Z,45.29
2023-05-02T12:31:15.909Z,44.95
2023-05-02T12:32:15.878Z,44.97
2023-05-02T12:33:15.943Z,45.28
2023-05-02T12:34:15.916Z,44.94
2023-05-02T12:35:15.958Z,44.97
2023-05-02T12:36:16.034Z,45.02
2023-05-02T12:37:16.058Z,45.06
2023-05-02T12:38:16.102Z,44.79
2023-05-02T12:39:16.486Z,44.49
2023-05-02T12:40:16.143Z,44.46
2023-05-02T12:41:16.186Z,44.44
2023-05-02T12:42:16.238Z,44.44
2023-05-02T12:43:16.283Z,44.36
2023-05-02T12:44:16.301Z,44.14
2023-05-02T12:45:16.305Z,43.98
2023-05-02T12:46:16.326Z,43.84
2023-05-02T12:47:16.396Z,43.75
2023-05-02T12:48:16.375Z,43.59
2023-05-02T12:49:16.401Z,43.54
2023-05-02T12:50:16.414Z,43.67
2023-05-02T12:51:16.413Z,43.89
2023-05-02T12:52:16.441Z,43.75
2023-05-02T12:53:16.478Z,43.83